Flight Track Log - Related Links

Times and Time Zones

All times are in EDT time to prevent confusion due to time zone crossing. See the GTX303 flight status page for this flight to view local times or setup timezone preferences in your user account.

Time Position Orientation Groundspeed Altitude Reporting Facility
EDT Latitude Longitude Course Direction KTS MPH feet Rate Location/Type
Thu 08:28:19 PM 27.7850 -97.4703 North 106 122 1,700  Level Houston Center
Thu 08:29:20 PM 27.8086 -97.4550 30° Northeast 111 128 2,500 850 Climbing Houston Center
Thu 08:30:12 PM 27.8389 -97.4522 North 114 131 3,300 784 Climbing Houston Center
Thu 08:32:16 PM 27.9083 -97.4439 North 124 143 4,800 719 Climbing Houston Center
Thu 08:32:59 PM 27.9333 -97.4403 North 127 146 5,300 408 Climbing Houston Center
Thu 08:33:00 PM 28.0267 -97.4661 North  Level FlightAware Approximate
Thu 08:33:59 PM 27.9686 -97.4378 North 132 152 5,500  Level Houston Center
Thu 08:34:20 PM 27.9847 -97.4336 13° North 147 169 5,500  Level Houston Center
Thu 08:35:00 PM 28.0164 -97.4311 North 169 194 5,500  Level Houston Center
Thu 08:35:22 PM 28.0325 -97.4261 15° North 168 193 5,500  Level Houston Center
Thu 08:36:01 PM 28.0658 -97.4219 North 173 199 5,500  Level Houston Center
Thu 08:36:23 PM 28.0833 -97.4194 North 168 193 5,500  Level Houston Center
Thu 08:37:02 PM 28.1097 -97.4183 North 167 192 5,500  Level Houston Center
Thu 08:37:25 PM 28.1303 -97.4150 North 168 193 5,500  Level Houston Center
Thu 08:39:29 PM 28.2247 -97.4067 North 167 192 5,500  Level Houston Center
Thu 08:40:31 PM 28.2714 -97.4025 North 167 192 5,500  Level Houston Center
Thu 08:41:33 PM 28.3183 -97.3992 North 166 191 5,500  Level Houston Center
Thu 08:42:35 PM 28.3650 -97.3947 North 166 191 5,500  Level Houston Center
Thu 08:44:38 PM 28.4619 -97.3911 North 166 191 5,500  Level Houston Center
Thu 08:45:40 PM 28.5075 -97.3908 360° North 165 190 5,500  Level Houston Center
Thu 08:46:42 PM 28.5536 -97.3917 359° North 165 190 5,500 -146 Level Houston Center
Thu 08:47:43 PM 28.6000 -97.3947 357° North 166 191 5,200 -341 Descending Houston Center
Thu 08:48:45 PM 28.6506 -97.3978 357° North 177 204 4,800 -387 Descending Houston Center
Thu 08:49:47 PM 28.6983 -97.4008 357° North 175 201 4,400 -387 Descending Houston Center
Thu 08:50:49 PM 28.7469 -97.4031 358° North 176 203 4,000 -339 Descending Houston Center
Thu 08:51:51 PM 28.8050 -97.4019 North 175 201 3,700 -195 Descending Houston Center
Thu 08:52:52 PM 28.8542 -97.4053 357° North 175 201 3,600 -49 Descending Houston Center
Thu 08:53:54 PM 28.8992 -97.3950 11° North 173 199 3,600  Level Houston Center
Thu 08:55:58 PM 28.9847 -97.3781 10° North 161 185 3,600  Level Houston Center
Thu 08:56:59 PM 29.0289 -97.3725 North 161 185 3,600  Level Houston Center
Thu 08:58:01 PM 29.0728 -97.3661 North 161 185 3,600  Level Houston Center
Thu 08:59:03 PM 29.1156 -97.3567 11° North 160 184 3,600  Level Houston Center
Thu 09:00:05 PM 29.1664 -97.3475 North 159 183 3,600  Level Houston Center
Thu 09:01:06 PM 29.2086 -97.3417 North 158 182 3,600  Level Houston Center
Thu 09:02:08 PM 29.2522 -97.3353 North 158 182 3,600 -48 Level Houston Center
Thu 09:03:10 PM 29.2956 -97.3308 North 158 182 3,500 -49 Descending Houston Center
Thu 09:04:11 PM 29.3386 -97.3264 North 158 182 3,500 -98 Level Houston Center
Thu 09:05:13 PM 29.3842 -97.3225 North 158 182 3,300 -48 Descending Houston Center
Thu 09:06:15 PM 29.4297 -97.3169 North 160 184 3,400 49 Climbing Houston Center
Thu 09:07:16 PM 29.4742 -97.3144 North 160 184 3,400  Level Houston Center
Thu 09:08:18 PM 29.5272 -97.3117 North 160 184 3,400  Level Houston Center
Thu 09:09:19 PM 29.5711 -97.3097 North 160 184 3,400  Level Houston Center
Thu 09:10:21 PM 29.6144 -97.3067 North 159 183 3,400  Level Houston Center
Thu 09:11:23 PM 29.6586 -97.3058 North 158 182 3,400  Level Houston Center
Thu 09:12:24 PM 29.7025 -97.3028 North 158 182 3,400 -49 Level Houston Center
Thu 09:13:26 PM 29.7481 -97.2989 North 159 183 3,300  Descending Houston Center
Thu 09:14:28 PM 29.7875 -97.3069 350° North 148 170 3,400 98 Climbing Houston Center
Thu 09:15:29 PM 29.8300 -97.3150 351° North 149 171 3,500 49 Climbing Houston Center
Thu 09:16:31 PM 29.8847 -97.3200 355° North 159 183 3,500  Level Houston Center
Thu 09:17:33 PM 29.9306 -97.3144 North 161 185 3,500  Level Houston Center
Thu 09:18:34 PM 29.9767 -97.3153 359° North 162 186 3,500  Level Houston Center
Thu 09:19:36 PM 30.0211 -97.3169 358° North 162 186 3,500  Level Houston Center
Thu 09:20:37 PM 30.0650 -97.3158 North 161 185 3,500  Level Houston Center
Thu 09:21:39 PM 30.1100 -97.3147 North 158 182 3,500 -49 Level Houston Center
Thu 09:22:40 PM 30.1542 -97.3150 360° North 156 180 3,400  Descending Houston Center
Thu 09:23:42 PM 30.1964 -97.3228 351° North 156 180 3,500 35 Climbing Houston Center
Thu 09:25:30 PM 30.2739 -97.3406 349° North 158 182 3,500  Level Fort Worth Center
Thu 09:26:32 PM 30.3147 -97.3542 344° North 157 181 3,500  Level Fort Worth Center
Thu 09:27:33 PM 30.3628 -97.3714 343° North 155 178 3,500  Level Fort Worth Center
Thu 09:28:35 PM 30.4031 -97.3878 341° North 155 178 3,500  Level Fort Worth Center
Thu 09:29:36 PM 30.4453 -97.4019 344° North 155 178 3,500  Level Fort Worth Center
Thu 09:30:38 PM 30.4883 -97.4067 355° North 155 178 3,500  Level Fort Worth Center
Thu 09:31:54 PM 30.5378 -97.3992 North 149 171 3,500  Level Houston Center
Thu 09:32:56 PM 30.5764 -97.3894 12° North 147 169 3,500  Level Houston Center
Thu 09:33:58 PM 30.6242 -97.3800 10° North 147 169 3,500  Level Houston Center
Thu 09:34:59 PM 30.6667 -97.3692 12° North 148 170 3,500  Level Houston Center
Thu 09:36:01 PM 30.7094 -97.3575 13° North 152 175 3,500  Level Houston Center
Thu 09:37:02 PM 30.7536 -97.3475 11° North 157 181 3,500  Level Houston Center
Thu 09:38:04 PM 30.7989 -97.3372 11° North 160 184 3,500  Level Houston Center
Thu 09:39:37 PM 30.8733 -97.3194 12° North 166 191 3,500  Level Fort Worth Center
Thu 09:39:52 PM 30.8794 -97.3181 11° North 162 186 3,500  Level Fort Worth Center
Thu 09:40:37 PM 30.9183 -97.3094 11° North 167 192 3,500  Level Fort Worth Center
Thu 09:40:53 PM 30.9258 -97.3069 16° North 163 188 3,500  Level Fort Worth Center
Thu 09:41:38 PM 30.9656 -97.2989 10° North 166 191 3,500  Level Fort Worth Center
Thu 09:41:55 PM 30.9736 -97.2967 13° North 163 188 3,500 -100 Level Fort Worth Center
Thu 09:42:38 PM 31.0083 -97.2869 13° North 165 190 3,400  Descending Fort Worth Center
Thu 09:43:39 PM 31.0556 -97.2764 11° North 168 193 3,500 75 Climbing Fort Worth Center
Thu 09:43:58 PM 31.0656 -97.2747 North 164 189 3,500  Level Fort Worth Center
Thu 09:44:23 PM 31.0881 -97.2683 14° North 167 192 3,500  Level Fort Worth Center
Thu 09:44:59 PM 31.1117 -97.2639 North 164 189 3,500  Level Fort Worth Center
Thu 09:46:01 PM 31.1572 -97.2528 12° North 164 189 3,500  Level Fort Worth Center
Thu 09:47:02 PM 31.2017 -97.2425 11° North 164 189 3,500  Level Fort Worth Center
Thu 09:48:04 PM 31.2564 -97.2308 10° North 164 189 3,500  Level Fort Worth Center
Thu 09:48:24 PM 31.2711 -97.2278 10° North 163 188 3,500  Level Fort Worth Center
Thu 09:49:05 PM 31.3003 -97.2197 13° North 164 189 3,500  Level Fort Worth Center
Thu 09:50:07 PM 31.3447 -97.2083 12° North 164 189 3,500  Level Fort Worth Center
Thu 09:51:08 PM 31.3894 -97.1978 11° North 164 189 3,500  Level Fort Worth Center
Thu 09:52:24 PM 31.4514 -97.1822 12° North 166 191 3,500  Level Fort Worth Center
Thu 09:53:11 PM 31.4797 -97.1761 10° North 164 189 3,500  Level Fort Worth Center
Thu 09:54:13 PM 31.5250 -97.1672 10° North 164 189 3,500  Level Fort Worth Center
Thu 09:55:14 PM 31.5700 -97.1556 12° North 164 189 3,500  Level Fort Worth Center
Thu 09:56:15 PM 31.6231 -97.1417 13° North 164 189 3,500  Level Fort Worth Center
Thu 09:56:25 PM 31.6300 -97.1394 15° North 162 186 3,500  Level Fort Worth Center
Thu 09:57:17 PM 31.6669 -97.1319 10° North 164 189 3,500  Level Fort Worth Center
Thu 09:58:18 PM 31.7119 -97.1228 10° North 164 189 3,500  Level Fort Worth Center
Thu 09:59:20 PM 31.7572 -97.1122 11° North 164 189 3,500  Level Fort Worth Center
Thu 10:01:23 PM 31.8464 -97.0894 12° North 163 188 3,500  Level Fort Worth Center
Thu 10:02:24 PM 31.8914 -97.0794 11° North 165 190 3,500  Level Fort Worth Center
Thu 10:03:26 PM 31.9344 -97.0686 12° North 164 189 3,500  Level Fort Worth Center
Thu 10:04:26 PM 31.9853 -97.0583 10° North 162 186 3,500  Level Fort Worth Center
Thu 10:05:28 PM 32.0281 -97.0456 14° North 163 188 3,500  Level Fort Worth Center
Thu 10:06:30 PM 32.0725 -97.0339 13° North 163 188 3,500  Level Fort Worth Center
Thu 10:07:31 PM 32.1172 -97.0244 10° North 163 188 3,500  Level Fort Worth Center
Thu 10:08:33 PM 32.1719 -97.0119 11° North 164 189 3,500  Level Fort Worth Center
Thu 10:08:50 PM 32.1861 -97.0092 North 168 193 3,500  Level Fort Worth Center
Thu 10:09:34 PM 32.2186 -97.0014 11° North 166 191 3,500  Level Fort Worth Center
Thu 10:10:36 PM 32.2658 -96.9897 12° North 170 196 3,500  Level Fort Worth Center
Thu 10:12:39 PM 32.3628 -96.9664 11° North 172 198 3,500  Level Fort Worth Center
Thu 10:13:40 PM 32.4094 -96.9553 11° North 171 197 3,500  Level Fort Worth Center
Thu 10:14:42 PM 32.4600 -96.9453 North 171 197 3,500  Level Fort Worth Center
Thu 10:15:43 PM 32.5058 -96.9358 10° North 171 197 3,500  Level Fort Worth Center
Thu 10:16:44 PM 32.5514 -96.9272 North 168 193 3,500  Level Fort Worth Center
Thu 10:17:46 PM 32.6003 -96.9167 10° North 168 193 3,500  Level Fort Worth Center
Thu 10:18:47 PM 32.6464 -96.9056 11° North 169 194 3,500 -98 Level Fort Worth Center
Thu 10:19:49 PM 32.6906 -96.8944 12° North 166 191 3,300 -293 Descending Fort Worth Center
Thu 10:20:50 PM 32.7386 -96.8839 10° North 165 190 2,900 -390 Descending Fort Worth Center
Thu 10:21:52 PM 32.7772 -96.8742 12° North 159 183 2,500 -244 Descending Fort Worth Center
Thu 10:22:53 PM 32.8108 -96.9011 326° Northwest 134 154 2,400 -195 Descending Fort Worth Center
Thu 10:23:55 PM 32.8456 -96.9036 357° North 135 155 2,100 -488 Descending Fort Worth Center
Thu 10:24:56 PM 32.8644 -96.8800 46° Northeast 105 121 1,400 -689 Descending Fort Worth Center
Thu 10:25:57 PM 32.8586 -96.8506 103° East 105 121 700 -689 Descending Fort Worth Center
Thu 10:28:00 PM 32.8471 -96.8518 157° South  Level Estimated

Login

Don't have an account? Register now (free) for customized features, flight alerts, and more!